Terminal Aerodrome Forecast
Issued by NWS

Home | Current Version | Previous Version | Text Only | Print | Product List | Glossary On
Versions: 1 2 3 4 5 6 7 8 9 10 11 12 13
000
FTUS44 KTSA 300520
TAFMLC
TAF
KMLC 300520Z 3006/3106 00000KT P6SM VCTS FEW040CB BKN250
     FM301500 18006KT P6SM SCT040 BKN250 PROB30 3019/3101 5SM -TSRA
      BKN040CB
     FM310200 14003KT P6SM BKN250=

USA.gov is the U.S. government's official web portal to all federal, state and local government web resources and services.